Time;durP1;ratioP1;P1;durP2;ratioP2;P2;SDS_P1;SDS_P2;PMS_P1;PMS_P2;Temp;Humidity;BMP_temperature;BMP_pressure;BME280_temperature;BME280_humidity;BME280_pressure;Samples;Min_cycle;Max_cycle;Signal;HPM_P1;HPM_P2
2021/01/09 00:02:26;;;;;;;1.98;1.50;;;18.80;53.60;;;;;;5076728;28;20519;-56
2021/01/09 00:04:52;;;;;;;1.55;0.90;;;18.80;53.50;;;;;;5087814;28;20051;-55
2021/01/09 00:07:19;;;;;;;2.47;1.25;;;18.80;53.50;;;;;;5086144;28;20040;-58
2021/01/09 00:09:45;;;;;;;1.75;1.05;;;18.80;53.50;;;;;;5087989;28;20059;-56
2021/01/09 00:12:13;;;;;;;3.30;1.33;;;18.80;53.50;;;;;;5086195;28;20130;-58
2021/01/09 00:14:40;;;;;;;2.38;1.23;;;18.80;53.60;;;;;;5075635;28;20137;-55
2021/01/09 00:17:07;;;;;;;4.45;1.90;;;18.80;53.50;;;;;;5087992;28;20128;-57
2021/01/09 00:19:34;;;;;;;1.88;1.35;;;18.80;53.30;;;;;;5081353;28;20047;-57
2021/01/09 00:22:01;;;;;;;2.53;1.42;;;18.80;53.10;;;;;;5086780;28;20075;-58
2021/01/09 00:24:27;;;;;;;2.70;1.25;;;18.80;53.00;;;;;;5086123;28;20097;-55
2021/01/09 00:26:54;;;;;;;2.00;0.95;;;18.80;53.00;;;;;;5086612;28;20047;-57
2021/01/09 00:29:20;;;;;;;2.90;1.08;;;18.80;52.90;;;;;;5083930;28;20043;-57
2021/01/09 00:31:48;;;;;;;2.55;1.25;;;18.80;52.80;;;;;;5087847;28;20047;-57
2021/01/09 00:34:14;;;;;;;2.22;1.02;;;18.80;52.70;;;;;;5087098;28;20558;-54
2021/01/09 00:36:46;;;;;;;2.75;1.40;;;18.80;52.50;;;;;;5083937;28;20129;-55
2021/01/09 00:39:13;;;;;;;0.90;0.52;;;18.80;52.50;;;;;;5079856;28;20104;-56
2021/01/09 00:41:40;;;;;;;1.80;0.80;;;18.80;52.40;;;;;;5079506;28;20607;-59
2021/01/09 00:44:07;;;;;;;1.50;0.70;;;18.80;52.30;;;;;;5080668;28;20078;-56
2021/01/09 00:46:34;;;;;;;2.75;0.63;;;18.80;52.20;;;;;;5089774;28;20520;-56
2021/01/09 00:49:01;;;;;;;2.15;0.93;;;18.80;52.10;;;;;;5084884;28;20055;-57
2021/01/09 00:51:28;;;;;;;2.60;0.90;;;18.80;52.00;;;;;;5087598;28;20079;-55
2021/01/09 00:53:54;;;;;;;2.08;0.95;;;18.80;51.80;;;;;;5085612;28;20040;-54
2021/01/09 00:56:21;;;;;;;1.08;0.82;;;18.80;51.70;;;;;;5085689;28;20577;-57
2021/01/09 00:58:48;;;;;;;1.05;0.73;;;18.80;51.70;;;;;;5088423;28;20052;-59
2021/01/09 01:01:15;;;;;;;1.95;0.77;;;18.80;51.60;;;;;;5087192;28;20070;-57
2021/01/09 01:03:42;;;;;;;2.35;0.88;;;18.80;51.50;;;;;;5079755;28;20063;-56
2021/01/09 01:06:10;;;;;;;1.08;0.60;;;18.80;51.40;;;;;;5078309;28;20131;-58
2021/01/09 01:08:37;;;;;;;2.38;0.50;;;18.80;51.40;;;;;;5085588;28;20200;-57
2021/01/09 01:11:06;;;;;;;2.08;0.50;;;18.80;51.30;;;;;;5076065;28;20047;-56
2021/01/09 01:13:32;;;;;;;0.85;0.85;;;18.80;51.20;;;;;;5085689;28;20051;-56
2021/01/09 01:15:59;;;;;;;0.65;0.55;;;18.80;51.10;;;;;;5084489;28;20044;-57
2021/01/09 01:18:26;;;;;;;1.52;0.85;;;18.80;51.10;;;;;;5085090;28;20411;-57
2021/01/09 01:20:52;;;;;;;1.60;1.02;;;18.80;51.00;;;;;;5085744;28;20535;-54
2021/01/09 01:23:20;;;;;;;3.20;0.82;;;18.80;50.90;;;;;;5085558;28;20056;-56
2021/01/09 01:25:46;;;;;;;2.15;0.77;;;18.80;51.00;;;;;;5086488;28;20040;-56
2021/01/09 01:28:13;;;;;;;2.55;0.70;;;18.80;50.90;;;;;;5086872;28;20452;-60
2021/01/09 01:30:39;;;;;;;3.20;1.02;;;18.80;50.80;;;;;;5084632;28;20118;-58
2021/01/09 01:33:06;;;;;;;2.70;0.52;;;18.80;50.80;;;;;;5086839;28;20048;-56
2021/01/09 01:35:32;;;;;;;2.72;0.65;;;18.80;50.80;;;;;;5085610;28;20450;-57
2021/01/09 01:37:59;;;;;;;1.85;0.68;;;18.80;50.70;;;;;;5086499;28;20037;-57
2021/01/09 01:40:26;;;;;;;4.20;0.70;;;18.70;50.60;;;;;;5088016;28;20064;-56
2021/01/09 01:42:53;;;;;;;1.48;1.00;;;18.70;50.50;;;;;;5085631;28;20055;-55
2021/01/09 01:45:19;;;;;;;1.38;1.10;;;18.70;50.40;;;;;;5083030;28;20130;-56
2021/01/09 01:47:47;;;;;;;1.42;1.08;;;18.70;50.40;;;;;;5086507;28;20048;-55
2021/01/09 01:50:16;;;;;;;1.00;0.60;;;18.80;50.50;;;;;;5084128;28;20055;-53
2021/01/09 01:52:43;;;;;;;2.92;1.13;;;18.70;50.50;;;;;;5086833;28;20113;-56
2021/01/09 01:55:11;;;;;;;1.35;0.88;;;18.70;50.40;;;;;;5088411;28;20074;-58
2021/01/09 01:57:38;;;;;;;1.42;1.33;;;18.70;50.30;;;;;;5077954;28;20132;-56
2021/01/09 02:00:06;;;;;;;1.15;0.98;;;18.70;50.20;;;;;;5077270;28;20495;-56
2021/01/09 02:02:39;;;;;;;1.73;1.23;;;18.70;50.20;;;;;;5084151;28;20051;-56
2021/01/09 02:05:08;;;;;;;1.58;1.15;;;18.70;50.10;;;;;;5079328;28;20040;-56
2021/01/09 02:07:41;;;;;;;1.00;0.93;;;18.70;50.10;;;;;;5087185;28;20067;-58
2021/01/09 02:10:09;;;;;;;1.20;0.95;;;18.70;50.10;;;;;;5086892;28;20147;-56
2021/01/09 02:12:43;;;;;;;3.10;1.25;;;18.70;49.90;;;;;;5075877;28;20197;-62
2021/01/09 02:15:11;;;;;;;1.50;1.40;;;18.70;49.80;;;;;;5073834;28;20564;-57
2021/01/09 02:17:39;;;;;;;10.38;2.28;;;18.70;49.70;;;;;;5081137;28;20052;-56
2021/01/09 02:20:08;;;;;;;1.55;0.98;;;18.70;49.60;;;;;;5084944;28;20051;-56
2021/01/09 02:22:41;;;;;;;1.05;0.80;;;18.70;49.50;;;;;;5071681;28;20131;-58
2021/01/09 02:25:08;;;;;;;1.20;0.85;;;18.70;49.60;;;;;;5084458;28;20093;-56
2021/01/09 02:27:35;;;;;;;2.95;1.60;;;18.70;49.40;;;;;;5083503;28;20123;-57
2021/01/09 02:30:06;;;;;;;0.90;0.77;;;18.70;49.30;;;;;;5084848;28;20052;-55
2021/01/09 02:32:41;;;;;;;1.38;1.27;;;18.70;49.30;;;;;;5081844;28;20415;-56
2021/01/09 02:35:09;;;;;;;1.02;0.93;;;18.70;49.90;;;;;;5083709;28;20040;-57
2021/01/09 02:37:35;;;;;;;1.85;1.23;;;18.60;49.20;;;;;;5087869;28;20059;-53
2021/01/09 02:40:04;;;;;;;0.85;0.77;;;18.60;49.10;;;;;;5083505;28;20040;-54
2021/01/09 02:42:31;;;;;;;0.85;0.75;;;18.60;49.10;;;;;;5083833;28;20052;-58
2021/01/09 02:44:59;;;;;;;1.75;1.17;;;18.60;49.00;;;;;;5085004;28;20079;-57
2021/01/09 02:47:26;;;;;;;1.23;1.20;;;18.60;49.00;;;;;;5085215;28;20045;-59
2021/01/09 02:49:52;;;;;;;1.45;0.82;;;18.60;48.90;;;;;;5085864;28;20040;-54
2021/01/09 02:52:19;;;;;;;1.55;0.90;;;18.60;48.90;;;;;;5086503;28;20090;-55
2021/01/09 02:54:45;;;;;;;1.95;1.00;;;18.60;48.90;;;;;;5085399;28;20048;-55
2021/01/09 02:57:13;;;;;;;1.73;0.98;;;18.60;49.40;;;;;;5084452;28;20123;-53
2021/01/09 02:59:39;;;;;;;2.17;1.05;;;18.60;48.90;;;;;;5084428;28;20084;-55
2021/01/09 03:02:06;;;;;;;1.58;1.08;;;18.60;48.70;;;;;;5089682;28;20058;-55
2021/01/09 03:04:32;;;;;;;0.70;0.47;;;18.60;48.70;;;;;;5089308;28;20055;-55
2021/01/09 03:06:59;;;;;;;0.95;0.75;;;18.60;48.70;;;;;;5087129;28;20468;-56
2021/01/09 03:09:26;;;;;;;1.83;1.30;;;18.60;48.70;;;;;;5087982;28;20044;-52
2021/01/09 03:11:53;;;;;;;1.30;0.85;;;18.50;48.60;;;;;;5085526;28;20059;-55
2021/01/09 03:14:21;;;;;;;1.83;1.40;;;18.50;48.60;;;;;;5087234;28;20050;-57
2021/01/09 03:16:47;;;;;;;1.17;0.50;;;18.50;48.50;;;;;;5089817;28;20094;-54
2021/01/09 03:19:14;;;;;;;0.95;0.70;;;18.50;48.50;;;;;;5089782;28;20082;-53
2021/01/09 03:21:40;;;;;;;1.08;0.85;;;18.50;48.50;;;;;;5089288;28;20531;-53
2021/01/09 03:24:07;;;;;;;0.63;0.63;;;18.50;48.50;;;;;;5087160;28;20047;-53
2021/01/09 03:26:35;;;;;;;0.82;0.82;;;18.50;48.50;;;;;;5087705;28;20047;-53
2021/01/09 03:29:01;;;;;;;2.33;0.63;;;18.50;48.50;;;;;;5087752;28;20044;-56
2021/01/09 03:31:28;;;;;;;0.65;0.40;;;18.50;48.50;;;;;;5091624;28;20066;-53
2021/01/09 03:33:55;;;;;;;3.25;0.52;;;18.50;48.40;;;;;;5089311;28;20423;-55
2021/01/09 03:36:22;;;;;;;0.70;0.63;;;18.50;48.40;;;;;;5087815;28;20036;-51
2021/01/09 03:38:48;;;;;;;1.92;0.60;;;18.50;48.40;;;;;;5087928;28;20048;-51
2021/01/09 03:41:15;;;;;;;2.05;1.25;;;18.50;48.30;;;;;;5084838;28;20037;-54
2021/01/09 03:43:41;;;;;;;1.48;0.60;;;18.50;48.30;;;;;;5073070;28;20408;-54
2021/01/09 03:46:08;;;;;;;0.85;0.52;;;18.50;48.30;;;;;;5089547;28;20415;-57
2021/01/09 03:48:35;;;;;;;1.75;0.88;;;18.50;48.30;;;;;;5088423;28;20058;-56
2021/01/09 03:51:02;;;;;;;0.73;0.60;;;18.50;48.80;;;;;;5086997;28;20127;-55
2021/01/09 03:53:28;;;;;;;1.20;0.47;;;18.50;48.30;;;;;;5086936;28;20097;-53
2021/01/09 03:55:55;;;;;;;0.95;0.80;;;18.50;48.30;;;;;;5087278;28;20080;-58
2021/01/09 03:58:21;;;;;;;0.85;0.75;;;18.50;48.20;;;;;;5089884;28;20048;-55
2021/01/09 04:00:48;;;;;;;1.88;0.70;;;18.50;48.20;;;;;;5086916;28;20130;-56
2021/01/09 04:03:15;;;;;;;1.13;0.77;;;18.50;48.10;;;;;;5086921;28;20109;-54
2021/01/09 04:05:42;;;;;;;1.38;0.20;;;18.50;48.10;;;;;;5086734;28;20514;-54
2021/01/09 04:08:09;;;;;;;1.73;0.43;;;18.50;48.00;;;;;;5086938;28;20036;-56
2021/01/09 04:10:35;;;;;;;1.75;0.68;;;18.40;48.00;;;;;;5090637;28;20044;-57
2021/01/09 04:13:02;;;;;;;1.80;1.00;;;18.50;48.00;;;;;;5088435;28;20036;-57
2021/01/09 04:15:29;;;;;;;1.75;0.70;;;18.40;47.90;;;;;;5087106;28;20044;-58
2021/01/09 04:17:55;;;;;;;2.50;0.52;;;18.40;47.90;;;;;;5084017;28;20507;-55
2021/01/09 04:20:22;;;;;;;0.90;0.60;;;18.40;47.80;;;;;;5084186;28;20068;-57
2021/01/09 04:22:49;;;;;;;1.17;0.40;;;18.40;47.80;;;;;;5088829;28;20048;-57
2021/01/09 04:25:16;;;;;;;1.15;1.05;;;18.40;47.80;;;;;;5088321;28;20059;-57
2021/01/09 04:27:42;;;;;;;2.90;0.45;;;18.40;47.70;;;;;;5085874;28;20568;-56
2021/01/09 04:30:09;;;;;;;0.77;0.68;;;18.40;47.70;;;;;;5080853;28;20051;-57
2021/01/09 04:32:36;;;;;;;0.73;0.73;;;18.40;47.70;;;;;;5074565;28;20523;-57
2021/01/09 04:35:04;;;;;;;0.57;0.57;;;18.40;47.70;;;;;;5078573;28;20067;-58
2021/01/09 04:37:30;;;;;;;2.15;0.70;;;18.40;47.80;;;;;;5075415;28;20045;-58
2021/01/09 04:39:58;;;;;;;0.50;0.50;;;18.40;47.70;;;;;;5085387;28;20040;-55
2021/01/09 04:42:25;;;;;;;0.75;0.60;;;18.40;47.80;;;;;;5085594;28;20052;-53
2021/01/09 04:44:51;;;;;;;2.15;1.20;;;18.40;47.70;;;;;;5085127;28;20508;-57
2021/01/09 04:47:19;;;;;;;2.33;1.38;;;18.40;47.70;;;;;;5085956;28;20048;-56
2021/01/09 04:49:45;;;;;;;1.58;1.02;;;18.40;47.70;;;;;;5088563;28;20131;-56
2021/01/09 04:52:12;;;;;;;0.80;0.80;;;18.40;47.70;;;;;;5089472;28;20040;-56
2021/01/09 04:54:41;;;;;;;1.02;1.02;;;18.40;47.70;;;;;;5085608;28;20058;-55
2021/01/09 04:57:09;;;;;;;1.13;1.08;;;18.40;47.70;;;;;;5087283;28;20405;-57
2021/01/09 04:59:37;;;;;;;1.52;1.40;;;18.40;47.70;;;;;;5085970;28;20067;-55
2021/01/09 05:02:05;;;;;;;2.50;1.02;;;18.40;47.70;;;;;;5069171;28;20089;-57
2021/01/09 05:04:32;;;;;;;1.13;1.00;;;18.40;47.80;;;;;;5086037;28;20098;-56
2021/01/09 05:06:58;;;;;;;1.25;1.15;;;18.30;47.70;;;;;;5085883;28;20044;-55
2021/01/09 05:09:25;;;;;;;1.50;0.98;;;18.30;47.70;;;;;;5085594;28;20141;-54
2021/01/09 05:11:56;;;;;;;1.95;1.00;;;18.30;47.70;;;;;;5085804;28;20565;-54
2021/01/09 05:14:26;;;;;;;1.85;1.52;;;18.40;47.90;;;;;;5086230;28;20055;-56
2021/01/09 05:16:55;;;;;;;4.43;1.27;;;18.30;47.70;;;;;;5087798;28;20117;-55
2021/01/09 05:19:28;;;;;;;2.60;0.77;;;18.30;47.70;;;;;;5088631;28;20117;-57
2021/01/09 05:21:56;;;;;;;1.60;1.50;;;18.30;47.70;;;;;;5085674;28;20473;-57
2021/01/09 05:24:24;;;;;;;3.55;1.65;;;18.30;47.70;;;;;;5084611;28;20123;-55
2021/01/09 05:26:52;;;;;;;1.98;0.85;;;18.30;47.70;;;;;;5085851;28;20123;-55
2021/01/09 05:29:20;;;;;;;1.52;1.42;;;18.30;47.70;;;;;;5085830;28;20098;-52
2021/01/09 05:31:48;;;;;;;3.20;1.08;;;18.30;47.80;;;;;;5087832;28;20062;-56
2021/01/09 05:34:14;;;;;;;1.55;1.00;;;18.30;47.80;;;;;;5087347;28;20039;-54
2021/01/09 05:36:42;;;;;;;2.45;1.65;;;18.30;48.40;;;;;;5086786;28;20119;-54
2021/01/09 05:39:09;;;;;;;6.18;1.58;;;18.30;47.70;;;;;;5085268;28;20036;-56
2021/01/09 05:41:41;;;;;;;2.25;2.13;;;18.30;47.60;;;;;;5085691;28;20040;-52
2021/01/09 05:44:09;;;;;;;1.45;1.35;;;18.40;47.70;;;;;;5069444;28;20056;-55
2021/01/09 05:46:37;;;;;;;2.55;2.15;;;18.30;47.50;;;;;;5089156;28;20648;-57
2021/01/09 05:49:06;;;;;;;0.80;0.60;;;18.30;47.50;;;;;;5086446;28;20055;-56
2021/01/09 05:51:33;;;;;;;1.48;1.35;;;18.30;47.80;;;;;;5085090;28;20064;-55
2021/01/09 05:54:00;;;;;;;1.88;1.48;;;18.40;47.80;;;;;;5084978;28;20051;-53
2021/01/09 05:56:27;;;;;;;2.35;1.73;;;18.30;47.60;;;;;;5085505;28;20495;-56
2021/01/09 05:58:55;;;;;;;3.25;1.98;;;18.30;47.40;;;;;;5086727;28;20044;-55
2021/01/09 06:01:26;;;;;;;2.15;1.45;;;18.30;47.40;;;;;;5087677;28;20143;-56
2021/01/09 06:04:05;;;;;;;1.52;1.42;;;18.30;47.60;;;;;;5085319;28;20048;-59
2021/01/09 06:06:39;;;;;;;3.85;1.95;;;18.30;47.70;;;;;;5075087;28;20089;-62
2021/01/09 06:09:10;;;;;;;3.67;2.03;;;18.30;47.60;;;;;;5086635;28;20408;-57
2021/01/09 06:11:38;;;;;;;2.60;2.10;;;18.30;47.50;;;;;;5085701;28;20361;-56
2021/01/09 06:14:07;;;;;;;5.05;1.92;;;18.30;47.50;;;;;;5070934;28;20393;-58
2021/01/09 06:16:35;;;;;;;3.42;1.45;;;18.30;47.50;;;;;;5084625;28;20047;-56
2021/01/09 06:19:02;;;;;;;1.85;1.67;;;18.30;47.50;;;;;;5084052;28;20127;-60
2021/01/09 06:21:30;;;;;;;2.15;1.90;;;18.30;47.40;;;;;;5080988;28;20040;-56
2021/01/09 06:23:58;;;;;;;2.15;2.05;;;18.30;47.50;;;;;;5083237;28;20123;-57
2021/01/09 06:26:26;;;;;;;3.92;1.55;;;18.30;47.40;;;;;;5086275;28;20051;-55
2021/01/09 06:28:58;;;;;;;2.10;1.80;;;18.30;47.50;;;;;;5084095;28;20442;-55
2021/01/09 06:31:26;;;;;;;3.88;2.65;;;18.30;47.60;;;;;;5087987;28;20056;-56
2021/01/09 06:33:54;;;;;;;7.35;2.28;;;18.30;47.70;;;;;;5086389;28;20051;-58
2021/01/09 06:36:23;;;;;;;5.75;2.10;;;18.30;47.70;;;;;;5088002;28;20044;-59
2021/01/09 06:38:52;;;;;;;2.13;1.92;;;18.30;47.80;;;;;;5088859;28;20093;-59
2021/01/09 06:41:21;;;;;;;4.93;2.88;;;18.30;47.90;;;;;;5088942;28;20055;-58
2021/01/09 06:43:49;;;;;;;3.53;2.47;;;18.30;47.80;;;;;;5090467;28;20052;-60
2021/01/09 06:46:29;;;;;;;3.20;2.83;;;18.30;47.90;;;;;;5090178;28;20554;-60
2021/01/09 06:48:56;;;;;;;3.70;2.65;;;18.30;48.00;;;;;;5089973;28;20040;-58
2021/01/09 06:51:43;;;;;;;4.28;2.25;;;18.30;47.90;;;;;;5087922;28;20076;-58
2021/01/09 06:54:43;;;;;;;2.90;2.70;;;18.30;48.10;;;;;;5089314;28;20051;-58
2021/01/09 06:57:17;;;;;;;7.53;3.78;;;18.30;48.10;;;;;;5084355;28;20057;-62
2021/01/09 06:59:45;;;;;;;3.47;2.95;;;18.30;48.10;;;;;;5078581;28;20044;-53
2021/01/09 07:02:14;;;;;;;6.93;3.08;;;18.20;48.10;;;;;;5088577;28;20075;-53
2021/01/09 07:05:00;;;;;;;7.53;3.67;;;18.20;48.20;;;;;;5091006;28;20647;-57
2021/01/09 07:07:32;;;;;;;5.90;2.95;;;18.30;48.20;;;;;;5092033;28;20044;-50
2021/01/09 07:10:16;;;;;;;4.53;3.55;;;18.20;48.10;;;;;;5088482;28;20428;-57
2021/01/09 07:12:49;;;;;;;10.18;3.22;;;18.20;48.20;;;;;;5086987;28;20135;-56
2021/01/09 07:15:16;;;;;;;3.25;2.35;;;18.30;48.90;;;;;;5088483;28;20043;-54
2021/01/09 07:17:48;;;;;;;5.18;3.50;;;18.20;48.30;;;;;;5087923;28;20127;-52
2021/01/09 07:20:17;;;;;;;3.13;2.85;;;18.20;48.20;;;;;;5088711;28;20066;-52
2021/01/09 07:22:48;;;;;;;7.28;2.78;;;18.20;48.30;;;;;;5090122;28;20085;-52
2021/01/09 07:25:28;;;;;;;6.95;3.17;;;18.20;48.20;;;;;;5089729;28;20056;-51
2021/01/09 07:27:57;;;;;;;9.00;3.40;;;18.30;48.30;;;;;;5086559;28;20172;-52
2021/01/09 07:30:26;;;;;;;8.25;4.07;;;18.20;48.10;;;;;;5086661;28;20484;-54
2021/01/09 07:32:53;;;;;;;4.78;3.55;;;18.20;48.10;;;;;;5089212;28;20036;-53
2021/01/09 07:35:26;;;;;;;4.63;3.17;;;18.30;48.10;;;;;;5087709;28;20068;-51
2021/01/09 07:37:57;;;;;;;8.65;3.45;;;18.30;48.00;;;;;;5089808;28;20047;-56
2021/01/09 07:40:27;;;;;;;5.85;3.53;;;18.20;47.80;;;;;;5090109;28;20462;-54
2021/01/09 07:42:54;;;;;;;7.85;3.67;;;18.20;47.90;;;;;;5087563;28;20511;-52
2021/01/09 07:45:22;;;;;;;5.10;3.30;;;18.20;47.70;;;;;;5086281;28;20052;-54
2021/01/09 07:47:49;;;;;;;4.68;3.70;;;18.20;47.70;;;;;;5083135;28;20045;-58
2021/01/09 07:50:18;;;;;;;5.30;3.85;;;18.20;47.60;;;;;;5086778;28;20070;-53
2021/01/09 07:52:46;;;;;;;4.30;3.40;;;18.20;47.50;;;;;;5074410;28;20068;-49
2021/01/09 07:55:17;;;;;;;4.63;3.22;;;18.20;47.50;;;;;;5088783;28;20097;-52
2021/01/09 07:57:45;;;;;;;5.60;3.60;;;18.20;47.40;;;;;;5086956;28;20475;-59
2021/01/09 08:00:15;;;;;;;5.35;2.92;;;18.20;47.30;;;;;;5086670;28;20114;-55
2021/01/09 08:02:43;;;;;;;4.05;3.08;;;18.20;47.30;;;;;;5088085;28;20574;-53
2021/01/09 08:05:13;;;;;;;7.03;3.72;;;18.20;47.30;;;;;;5087970;28;20040;-53
2021/01/09 08:07:41;;;;;;;7.28;3.42;;;18.20;47.30;;;;;;5090454;28;20056;-53
2021/01/09 08:10:32;;;;;;;8.35;3.53;;;18.20;47.30;;;;;;5088475;28;20492;-53
2021/01/09 08:13:01;;;;;;;5.82;3.03;;;18.20;47.30;;;;;;5086425;28;20058;-54
2021/01/09 08:15:29;;;;;;;4.30;3.08;;;18.20;47.30;;;;;;5087410;28;20063;-53
2021/01/09 08:17:59;;;;;;;7.05;3.67;;;18.20;47.40;;;;;;5086804;28;20048;-52
2021/01/09 08:20:26;;;;;;;7.70;3.70;;;18.20;47.40;;;;;;5088051;28;20045;-54
2021/01/09 08:22:56;;;;;;;4.22;3.13;;;18.20;47.30;;;;;;5089244;28;20047;-52
2021/01/09 08:25:25;;;;;;;2.95;2.70;;;18.20;47.20;;;;;;5089764;28;20040;-56
2021/01/09 08:27:53;;;;;;;5.43;2.83;;;18.20;47.30;;;;;;5082177;28;20507;-51
2021/01/09 08:30:23;;;;;;;3.60;3.00;;;18.20;47.20;;;;;;5076318;28;20056;-52
2021/01/09 08:32:50;;;;;;;3.90;2.90;;;18.20;47.20;;;;;;5076703;28;20132;-52
2021/01/09 08:35:17;;;;;;;4.50;3.85;;;18.20;47.20;;;;;;5074764;28;20044;-55
2021/01/09 08:37:44;;;;;;;5.43;2.80;;;18.20;47.10;;;;;;5077905;28;20075;-51
2021/01/09 08:40:16;;;;;;;5.47;3.50;;;18.20;47.20;;;;;;5075174;28;20104;-51
2021/01/09 08:43:07;;;;;;;7.38;3.50;;;18.20;47.20;;;;;;5079162;28;20413;-57
2021/01/09 08:45:46;;;;;;;2.80;2.20;;;18.20;47.20;;;;;;5070375;28;20431;-48
2021/01/09 08:48:16;;;;;;;4.32;2.40;;;18.20;47.30;;;;;;5075059;28;20044;-55
2021/01/09 08:51:07;;;;;;;3.53;2.92;;;18.10;47.10;;;;;;5075667;28;20529;-52
2021/01/09 08:53:48;;;;;;;7.07;3.33;;;18.20;47.10;;;;;;5079981;28;20068;-53
2021/01/09 08:56:16;;;;;;;4.18;2.58;;;18.20;47.10;;;;;;5069986;28;20521;-50
2021/01/09 08:58:44;;;;;;;4.22;3.78;;;18.10;47.00;;;;;;5070465;28;20127;-52
2021/01/09 09:01:13;;;;;;;3.95;3.28;;;18.20;47.10;;;;;;5075002;28;20491;-54
2021/01/09 09:03:43;;;;;;;5.78;3.55;;;18.10;47.00;;;;;;5075553;28;20057;-53
2021/01/09 09:06:13;;;;;;;5.20;3.03;;;18.20;47.00;;;;;;5074500;28;20095;-56
2021/01/09 09:08:40;;;;;;;4.55;2.85;;;18.20;46.90;;;;;;5075838;28;20052;-55
2021/01/09 09:11:07;;;;;;;4.60;3.40;;;18.10;46.80;;;;;;5069358;28;20040;-55
2021/01/09 09:13:34;;;;;;;4.57;3.30;;;18.10;46.70;;;;;;5078452;28;20534;-55
2021/01/09 09:16:17;;;;;;;3.75;3.17;;;18.10;46.60;;;;;;5085173;28;20059;-54
2021/01/09 09:18:44;;;;;;;5.10;3.60;;;18.20;46.70;;;;;;5080076;28;20076;-55
2021/01/09 09:21:11;;;;;;;5.03;3.53;;;18.10;46.50;;;;;;5080550;28;20123;-51
2021/01/09 09:23:38;;;;;;;5.82;3.47;;;18.10;46.50;;;;;;5074486;28;20052;-56
2021/01/09 09:26:10;;;;;;;4.50;3.33;;;18.10;46.50;;;;;;5080476;28;20139;-56
2021/01/09 09:28:44;;;;;;;4.70;3.10;;;18.10;47.10;;;;;;5083706;28;20448;-59
2021/01/09 09:31:27;;;;;;;4.18;3.33;;;18.20;47.10;;;;;;5082660;28;20043;-54
2021/01/09 09:34:14;;;;;;;5.10;3.70;;;18.10;46.50;;;;;;5081504;28;20075;-52
2021/01/09 09:36:58;;;;;;;3.22;2.92;;;18.20;46.50;;;;;;5078121;28;20047;-54
2021/01/09 09:39:26;;;;;;;3.15;2.78;;;18.10;46.30;;;;;;5081260;28;20043;-53
2021/01/09 09:41:58;;;;;;;5.70;3.97;;;18.10;46.20;;;;;;5082168;28;20115;-57
2021/01/09 09:44:35;;;;;;;5.35;4.47;;;18.10;46.30;;;;;;5079250;28;20048;-53
2021/01/09 09:47:03;;;;;;;4.53;3.47;;;18.10;46.10;;;;;;5079464;28;20048;-55
2021/01/09 09:49:30;;;;;;;4.82;3.88;;;18.10;46.00;;;;;;5086257;28;20048;-54
2021/01/09 09:51:57;;;;;;;3.67;3.38;;;18.10;45.90;;;;;;5080587;28;20048;-51
2021/01/09 09:54:31;;;;;;;5.82;3.20;;;18.10;45.90;;;;;;5089649;28;20051;-55
2021/01/09 09:56:59;;;;;;;5.25;3.42;;;18.10;45.90;;;;;;5096682;28;20067;-54
2021/01/09 09:59:30;;;;;;;5.22;4.38;;;18.10;45.70;;;;;;5091828;28;20068;-54
2021/01/09 10:01:58;;;;;;;3.85;3.45;;;18.10;45.80;;;;;;5070781;28;20052;-55
2021/01/09 10:04:26;;;;;;;5.45;3.40;;;18.10;45.80;;;;;;5074614;28;20080;-54
2021/01/09 10:06:54;;;;;;;3.03;2.65;;;18.10;45.90;;;;;;5077935;28;20076;-50
2021/01/09 10:09:22;;;;;;;4.55;3.60;;;18.20;46.10;;;;;;5073408;28;20076;-54
2021/01/09 10:11:51;;;;;;;3.40;3.15;;;18.10;46.20;;;;;;5075829;28;20439;-55
2021/01/09 10:14:17;;;;;;;4.18;3.53;;;18.10;46.30;;;;;;5068979;28;20475;-60
2021/01/09 10:16:44;;;;;;;3.85;3.35;;;18.10;46.30;;;;;;5075928;28;20052;-57
2021/01/09 10:19:12;;;;;;;6.07;4.43;;;18.10;46.40;;;;;;5074075;28;20115;-54
2021/01/09 10:21:40;;;;;;;3.80;3.45;;;18.10;46.50;;;;;;5079382;28;20056;-59
2021/01/09 10:24:09;;;;;;;5.78;5.00;;;18.10;46.50;;;;;;5076402;28;20547;-54
2021/01/09 10:26:38;;;;;;;9.93;5.78;;;18.10;46.50;;;;;;5074370;28;20508;-52
2021/01/09 10:29:04;;;;;;;5.60;5.07;;;18.10;46.40;;;;;;5085503;28;20045;-53
2021/01/09 10:31:32;;;;;;;5.97;5.35;;;18.10;46.20;;;;;;5076679;28;20052;-53
2021/01/09 10:34:00;;;;;;;6.68;5.53;;;18.10;46.10;;;;;;5080686;28;20076;-56
2021/01/09 10:36:28;;;;;;;6.45;4.85;;;18.20;46.00;;;;;;5073671;28;20127;-56
2021/01/09 10:38:56;;;;;;;8.40;6.50;;;18.20;46.00;;;;;;5073783;28;20071;-53
2021/01/09 10:41:23;;;;;;;6.32;5.55;;;18.20;46.00;;;;;;5071962;28;20044;-61
2021/01/09 10:43:49;;;;;;;7.53;6.32;;;18.20;45.90;;;;;;5078103;28;20060;-54
2021/01/09 10:46:21;;;;;;;7.57;6.20;;;18.20;46.10;;;;;;5073922;28;20086;-53
2021/01/09 10:48:48;;;;;;;9.07;7.57;;;18.20;45.90;;;;;;5077679;28;20732;-55
2021/01/09 10:51:15;;;;;;;8.65;6.70;;;18.20;45.80;;;;;;5079114;28;20044;-53
2021/01/09 10:53:42;;;;;;;7.18;5.95;;;18.20;45.70;;;;;;5074640;28;20040;-53
2021/01/09 10:56:09;;;;;;;11.52;6.82;;;18.20;45.80;;;;;;5070721;28;20056;-53
2021/01/09 10:58:36;;;;;;;9.00;6.30;;;18.20;45.80;;;;;;5075674;28;20126;-50
2021/01/09 11:01:03;;;;;;;6.65;5.53;;;18.20;46.00;;;;;;5077339;28;20048;-54
2021/01/09 11:03:30;;;;;;;6.70;6.07;;;18.20;46.20;;;;;;5074433;28;20055;-52
2021/01/09 11:05:56;;;;;;;8.55;7.38;;;18.20;46.40;;;;;;5079680;28;20044;-53
2021/01/09 11:08:23;;;;;;;8.35;6.95;;;18.20;46.50;;;;;;5085806;28;20036;-54
2021/01/09 11:10:50;;;;;;;9.35;7.60;;;18.20;46.80;;;;;;5074906;28;20151;-53
2021/01/09 11:13:18;;;;;;;9.70;8.10;;;18.20;47.00;;;;;;5074891;28;20102;-57
2021/01/09 11:15:45;;;;;;;11.32;7.68;;;18.20;47.30;;;;;;5077729;28;20075;-53
2021/01/09 11:18:12;;;;;;;9.13;7.25;;;18.20;47.30;;;;;;5079050;28;20407;-53
2021/01/09 11:20:39;;;;;;;8.63;7.07;;;18.20;47.40;;;;;;5073940;28;20131;-53
2021/01/09 11:23:06;;;;;;;10.73;8.07;;;18.20;47.70;;;;;;5072894;28;20033;-50
2021/01/09 11:25:33;;;;;;;9.25;7.47;;;18.20;47.80;;;;;;5079377;28;20037;-55
2021/01/09 11:27:59;;;;;;;9.60;8.13;;;18.20;48.20;;;;;;5080855;28;20131;-54
2021/01/09 11:30:27;;;;;;;9.82;8.75;;;18.30;48.60;;;;;;5077662;28;20048;-57
2021/01/09 11:32:53;;;;;;;11.60;7.63;;;18.30;48.80;;;;;;5079258;28;20040;-53
2021/01/09 11:35:20;;;;;;;9.32;7.95;;;18.30;49.00;;;;;;5088993;28;20040;-53
2021/01/09 11:37:47;;;;;;;11.40;9.40;;;18.30;49.00;;;;;;5078394;28;20048;-51
2021/01/09 11:40:13;;;;;;;11.13;8.80;;;18.30;49.10;;;;;;5076423;28;20044;-56
2021/01/09 11:42:42;;;;;;;10.10;9.07;;;18.30;49.20;;;;;;5080538;28;20051;-52
2021/01/09 11:45:10;;;;;;;10.32;7.75;;;18.30;49.30;;;;;;5082290;28;20055;-56
2021/01/09 11:47:37;;;;;;;11.73;8.63;;;18.30;49.30;;;;;;5076856;28;20440;-53
2021/01/09 11:50:05;;;;;;;12.73;9.27;;;18.30;49.40;;;;;;5072493;28;20070;-57
2021/01/09 11:52:31;;;;;;;9.40;8.15;;;18.30;49.40;;;;;;5075578;28;20060;-55
2021/01/09 11:54:58;;;;;;;10.88;8.48;;;18.30;49.50;;;;;;5079931;28;20052;-59
2021/01/09 11:57:26;;;;;;;10.90;8.40;;;18.30;49.50;;;;;;5075952;28;20539;-52
2021/01/09 11:59:52;;;;;;;11.80;10.30;;;18.30;49.60;;;;;;5074504;28;20052;-53
2021/01/09 12:02:19;;;;;;;12.35;9.75;;;18.30;49.60;;;;;;5076407;28;20067;-50
2021/01/09 12:04:46;;;;;;;18.10;9.65;;;18.30;49.60;;;;;;5077812;28;20060;-53
2021/01/09 12:07:13;;;;;;;12.68;9.38;;;18.30;49.70;;;;;;5076624;28;20044;-55
2021/01/09 12:09:40;;;;;;;13.45;10.80;;;18.30;49.70;;;;;;5079809;28;20054;-55
2021/01/09 12:12:07;;;;;;;12.77;10.23;;;18.30;49.70;;;;;;5078084;28;20044;-51
2021/01/09 12:14:34;;;;;;;15.82;10.90;;;18.30;49.80;;;;;;5080084;28;20389;-55
2021/01/09 12:17:01;;;;;;;17.50;12.70;;;18.40;50.00;;;;;;5071714;28;20048;-54
2021/01/09 12:19:28;;;;;;;15.50;11.45;;;18.40;50.00;;;;;;5074907;28;20045;-53
2021/01/09 12:21:56;;;;;;;15.65;11.55;;;18.40;50.00;;;;;;5079669;28;20048;-55
2021/01/09 12:24:23;;;;;;;17.30;12.32;;;18.40;50.10;;;;;;5075267;28;20556;-57
2021/01/09 12:26:53;;;;;;;15.43;11.70;;;18.40;50.10;;;;;;5075242;28;20051;-53
2021/01/09 12:29:20;;;;;;;17.67;12.75;;;18.40;50.20;;;;;;5088165;28;20523;-57
2021/01/09 12:31:47;;;;;;;17.27;12.55;;;18.40;50.10;;;;;;5078176;28;20080;-55
2021/01/09 12:34:15;;;;;;;16.08;12.30;;;18.40;50.20;;;;;;5074976;28;20122;-55
2021/01/09 12:36:42;;;;;;;15.10;11.85;;;18.40;50.20;;;;;;5075964;28;20523;-55
2021/01/09 12:39:10;;;;;;;15.60;12.23;;;18.40;50.20;;;;;;5077656;28;20044;-56
2021/01/09 12:41:39;;;;;;;15.43;11.35;;;18.40;50.30;;;;;;5075766;28;20048;-54
2021/01/09 12:44:07;;;;;;;14.85;11.35;;;18.40;50.30;;;;;;5075210;28;20132;-56
2021/01/09 12:46:35;;;;;;;14.77;11.57;;;18.40;50.30;;;;;;5078584;28;20055;-54
2021/01/09 12:49:02;;;;;;;15.50;11.73;;;18.40;50.40;;;;;;5078871;28;20079;-51
2021/01/09 12:51:28;;;;;;;15.35;12.40;;;18.40;50.40;;;;;;5075371;28;20044;-55
2021/01/09 12:53:55;;;;;;;13.70;11.40;;;18.50;50.40;;;;;;5077946;28;20138;-51